Time;durP1;ratioP1;P1;durP2;ratioP2;P2;SDS_P1;SDS_P2;PMS_P1;PMS_P2;Temp;Humidity;BMP_temperature;BMP_pressure;BME280_temperature;BME280_humidity;BME280_pressure;Samples;Min_cycle;Max_cycle;Signal;HPM_P1;HPM_P2
2023/01/20 00:00:29;;;;;;;26.90;13.07;;;0.90;87.00;;;;;;5028224;28;20176;-76
2023/01/20 00:02:56;;;;;;;19.13;11.05;;;1.00;87.30;;;;;;5029101;28;20176;-77
2023/01/20 00:05:22;;;;;;;20.25;10.77;;;1.00;87.40;;;;;;5022933;28;20182;-76
2023/01/20 00:07:47;;;;;;;19.10;11.00;;;1.10;87.40;;;;;;5022972;28;20205;-76
2023/01/20 00:10:13;;;;;;;20.83;10.27;;;1.10;87.40;;;;;;5035585;28;20465;-76
2023/01/20 00:12:38;;;;;;;18.70;10.73;;;1.20;87.40;;;;;;5037461;28;20178;-76
2023/01/20 00:15:05;;;;;;;17.90;10.47;;;1.20;87.10;;;;;;5037404;28;20185;-76
2023/01/20 00:17:31;;;;;;;18.05;10.27;;;1.30;87.10;;;;;;5036653;28;20185;-77
2023/01/20 00:19:56;;;;;;;19.73;10.80;;;1.30;87.00;;;;;;5031594;28;20193;-77
2023/01/20 00:22:22;;;;;;;24.37;11.40;;;1.30;87.00;;;;;;5031520;28;20189;-77
2023/01/20 00:24:47;;;;;;;22.63;11.80;;;1.40;86.90;;;;;;5031932;28;20546;-77
2023/01/20 00:27:15;;;;;;;24.63;11.73;;;1.50;86.80;;;;;;5046954;28;20255;-77
2023/01/20 00:29:43;;;;;;;19.27;11.30;;;1.50;86.30;;;;;;5029665;28;20209;-77
2023/01/20 00:32:09;;;;;;;19.13;10.95;;;1.50;86.30;;;;;;5037992;28;20283;-78
2023/01/20 00:34:35;;;;;;;21.30;10.77;;;1.50;86.30;;;;;;5024998;28;20639;-78
2023/01/20 00:37:00;;;;;;;25.73;12.83;;;1.50;86.50;;;;;;5023611;28;20177;-78
2023/01/20 00:39:26;;;;;;;22.83;11.97;;;1.50;86.30;;;;;;5025691;28;20546;-77
2023/01/20 00:41:52;;;;;;;20.87;12.20;;;1.60;86.20;;;;;;5029478;28;20182;-77
2023/01/20 00:44:17;;;;;;;21.40;12.33;;;1.50;86.30;;;;;;5040130;28;20220;-77
2023/01/20 00:46:43;;;;;;;20.90;12.87;;;1.50;86.30;;;;;;5040407;28;20428;-76
2023/01/20 00:49:09;;;;;;;22.30;12.80;;;1.50;86.50;;;;;;5032071;28;20221;-76
2023/01/20 00:51:35;;;;;;;26.42;14.30;;;1.60;86.50;;;;;;5033304;28;20192;-77
2023/01/20 00:54:00;;;;;;;21.80;12.60;;;1.60;86.50;;;;;;5036067;28;20205;-76
2023/01/20 00:56:26;;;;;;;19.33;12.77;;;1.60;86.30;;;;;;5028365;28;20178;-79
2023/01/20 00:58:53;;;;;;;25.60;13.23;;;1.50;86.30;;;;;;5037038;28;20217;-77
2023/01/20 01:01:20;;;;;;;20.27;12.18;;;1.50;86.50;;;;;;5040563;28;20181;-77
2023/01/20 01:03:45;;;;;;;22.48;12.40;;;1.40;86.30;;;;;;5033222;28;20199;-78
2023/01/20 01:06:13;;;;;;;19.70;11.00;;;1.40;85.90;;;;;;5043158;28;20213;-78
2023/01/20 01:08:40;;;;;;;22.30;11.45;;;1.40;85.90;;;;;;5041312;28;20205;-77
2023/01/20 01:11:06;;;;;;;23.42;10.55;;;1.40;86.00;;;;;;5039852;28;20197;-77
2023/01/20 01:13:32;;;;;;;19.90;10.73;;;1.40;86.00;;;;;;5038676;28;20184;-76
2023/01/20 01:15:58;;;;;;;15.52;9.38;;;1.30;85.70;;;;;;5040323;28;20182;-77
2023/01/20 01:18:23;;;;;;;17.60;9.93;;;1.20;85.90;;;;;;5038753;28;20216;-77
2023/01/20 01:20:49;;;;;;;16.80;10.50;;;1.10;86.30;;;;;;5034851;28;20440;-78
2023/01/20 01:23:15;;;;;;;15.47;9.70;;;1.10;86.50;;;;;;5033308;28;20649;-76
2023/01/20 01:25:40;;;;;;;15.83;9.77;;;1.10;86.90;;;;;;5030063;28;20177;-77
2023/01/20 01:28:06;;;;;;;20.97;11.30;;;1.10;87.00;;;;;;5030780;28;20205;-76
2023/01/20 01:30:32;;;;;;;18.40;10.23;;;1.00;87.00;;;;;;5034896;28;20177;-76
2023/01/20 01:32:57;;;;;;;18.27;10.37;;;1.10;87.10;;;;;;5039881;28;20458;-78
2023/01/20 01:35:23;;;;;;;14.77;10.47;;;1.10;87.10;;;;;;5037029;28;20954;-76
2023/01/20 01:37:49;;;;;;;16.60;10.87;;;1.20;87.10;;;;;;5035195;28;20555;-76
2023/01/20 01:40:14;;;;;;;21.60;11.60;;;1.20;87.10;;;;;;5027068;28;20196;-77
2023/01/20 01:42:40;;;;;;;18.93;11.33;;;1.20;87.10;;;;;;5035122;28;20754;-76
2023/01/20 01:45:09;;;;;;;22.30;12.10;;;1.20;87.10;;;;;;5035199;28;20193;-77
2023/01/20 01:47:56;;;;;;;15.88;11.02;;;1.20;87.00;;;;;;5031212;28;20454;-77
2023/01/20 01:50:55;;;;;;;19.45;11.60;;;1.20;86.80;;;;;;5032960;28;20567;-77
2023/01/20 01:53:21;;;;;;;22.27;11.90;;;1.20;86.80;;;;;;5031548;28;20656;-76
2023/01/20 01:55:52;;;;;;;23.95;12.02;;;1.20;86.90;;;;;;5032348;28;20212;-76
2023/01/20 01:58:23;;;;;;;18.88;10.43;;;1.30;86.90;;;;;;5032934;28;20209;-75
2023/01/20 02:00:49;;;;;;;21.35;11.35;;;1.30;86.90;;;;;;5033678;28;20173;-75
2023/01/20 02:03:15;;;;;;;20.77;11.77;;;1.30;86.90;;;;;;5025183;28;20616;-77
2023/01/20 02:05:42;;;;;;;18.63;10.90;;;1.30;86.90;;;;;;5032327;28;20482;-75
2023/01/20 02:08:08;;;;;;;24.98;11.65;;;1.30;86.80;;;;;;5029368;28;20456;-74
2023/01/20 02:10:34;;;;;;;22.60;11.83;;;1.30;86.90;;;;;;5031791;28;20582;-75
2023/01/20 02:13:00;;;;;;;17.10;10.57;;;1.40;86.90;;;;;;5022762;28;20443;-77
2023/01/20 02:15:32;;;;;;;18.83;11.48;;;1.30;86.80;;;;;;5031878;28;20200;-75
2023/01/20 02:18:16;;;;;;;19.20;10.75;;;1.40;86.90;;;;;;5028343;28;20703;-76
2023/01/20 02:20:47;;;;;;;16.67;9.88;;;1.30;86.80;;;;;;5016886;28;20265;-77
2023/01/20 02:23:36;;;;;;;19.77;10.52;;;1.30;86.90;;;;;;5032191;28;20177;-78
2023/01/20 02:26:29;;;;;;;14.30;9.30;;;1.30;86.90;;;;;;5032093;28;20177;-78
2023/01/20 02:29:03;;;;;;;15.32;9.52;;;1.30;86.30;;;;;;5033651;28;20689;-77
2023/01/20 02:31:54;;;;;;;14.55;8.32;;;1.10;86.00;;;;;;5044326;28;20208;-77
2023/01/20 02:34:33;;;;;;;19.15;9.95;;;1.10;86.30;;;;;;5043123;28;20264;-76
2023/01/20 02:37:31;;;;;;;18.05;10.73;;;1.10;86.50;;;;;;5040141;28;20173;-76
2023/01/20 02:40:16;;;;;;;18.65;10.95;;;1.10;86.80;;;;;;5016344;28;20185;-77
2023/01/20 02:42:50;;;;;;;19.13;10.48;;;1.10;87.10;;;;;;5026021;28;20548;-78
2023/01/20 02:45:20;;;;;;;18.90;10.20;;;1.00;87.40;;;;;;5026598;28;20184;-76
2023/01/20 02:48:25;;;;;;;20.42;10.50;;;1.10;88.10;;;;;;5031441;28;20201;-76
2023/01/20 02:51:00;;;;;;;19.23;10.60;;;1.10;88.60;;;;;;5021867;28;20189;-77
2023/01/20 02:53:31;;;;;;;17.92;10.43;;;1.20;88.70;;;;;;5033320;28;20280;-75
2023/01/20 02:55:57;;;;;;;20.80;11.80;;;1.10;88.70;;;;;;5031984;28;20185;-76
2023/01/20 02:58:38;;;;;;;24.65;12.50;;;1.20;88.90;;;;;;5030807;28;20216;-77
2023/01/20 03:01:13;;;;;;;22.48;12.55;;;1.20;89.00;;;;;;5032103;28;20185;-78
2023/01/20 03:03:42;;;;;;;21.88;11.75;;;1.20;89.20;;;;;;5032426;28;20576;-77
2023/01/20 03:06:17;;;;;;;20.17;11.25;;;1.30;89.50;;;;;;5031759;28;20682;-77
2023/01/20 03:08:45;;;;;;;19.50;10.50;;;1.40;89.50;;;;;;5034966;28;20285;-76
2023/01/20 03:11:11;;;;;;;19.90;11.77;;;1.30;89.30;;;;;;5038888;28;20248;-77
2023/01/20 03:14:06;;;;;;;16.13;10.55;;;1.30;89.20;;;;;;5034232;28;20174;-77
2023/01/20 03:16:32;;;;;;;23.17;11.70;;;1.30;89.30;;;;;;5029340;28;20211;-76
2023/01/20 03:18:58;;;;;;;25.63;12.25;;;1.30;89.60;;;;;;5034187;28;20202;-76
2023/01/20 03:21:24;;;;;;;18.23;10.50;;;1.30;89.70;;;;;;5037410;28;20536;-78
2023/01/20 03:23:52;;;;;;;18.40;10.77;;;1.30;89.90;;;;;;5022822;28;20269;-77
2023/01/20 03:26:20;;;;;;;18.38;11.70;;;1.40;89.90;;;;;;5034388;28;20189;-78
2023/01/20 03:28:47;;;;;;;25.63;12.73;;;1.40;89.70;;;;;;5031635;28;20197;-76
2023/01/20 03:31:27;;;;;;;23.33;12.93;;;1.30;89.60;;;;;;5034778;28;20196;-77
2023/01/20 03:33:56;;;;;;;25.15;13.13;;;1.30;89.70;;;;;;5028334;28;20243;-75
2023/01/20 03:36:24;;;;;;;24.52;12.57;;;1.30;89.90;;;;;;5035960;28;20184;-76
2023/01/20 03:38:52;;;;;;;25.88;13.70;;;1.30;90.10;;;;;;5029695;28;20560;-77
2023/01/20 03:41:45;;;;;;;27.67;12.18;;;1.30;90.00;;;;;;5032907;28;20181;-78
2023/01/20 03:44:32;;;;;;;20.08;11.32;;;1.40;89.90;;;;;;5032874;28;20268;-76
2023/01/20 03:47:23;;;;;;;21.98;11.55;;;1.40;89.50;;;;;;5028617;28;20185;-76
2023/01/20 03:50:07;;;;;;;22.52;10.48;;;1.40;89.00;;;;;;5026159;28;20217;-76
2023/01/20 03:52:49;;;;;;;17.55;9.85;;;1.30;88.60;;;;;;5034601;28;20181;-77
2023/01/20 03:55:42;;;;;;;15.82;9.77;;;1.30;88.30;;;;;;5026379;28;20178;-76
2023/01/20 03:58:11;;;;;;;15.63;9.50;;;1.30;87.70;;;;;;5027034;28;20228;-77
2023/01/20 04:00:44;;;;;;;16.15;9.43;;;1.30;87.10;;;;;;5033204;28;20230;-76
2023/01/20 04:03:25;;;;;;;12.45;7.70;;;1.30;86.50;;;;;;5033113;28;20204;-75
2023/01/20 04:05:51;;;;;;;16.48;9.43;;;1.30;86.50;;;;;;5026008;28;20181;-78
2023/01/20 04:08:19;;;;;;;16.27;8.88;;;1.30;86.50;;;;;;5033967;28;20208;-77
2023/01/20 04:10:47;;;;;;;16.55;8.88;;;1.30;86.50;;;;;;5032516;28;20186;-77
2023/01/20 04:13:13;;;;;;;15.95;9.32;;;1.30;86.80;;;;;;5028054;28;20184;-77
2023/01/20 04:15:45;;;;;;;16.63;8.88;;;1.10;86.60;;;;;;5040426;28;20174;-77
2023/01/20 04:18:15;;;;;;;16.23;8.80;;;1.10;86.80;;;;;;5033562;28;20212;-77
2023/01/20 04:20:47;;;;;;;15.70;8.98;;;1.10;87.00;;;;;;5029145;28;20232;-77
2023/01/20 04:23:23;;;;;;;15.75;9.27;;;1.10;87.10;;;;;;5038009;28;20227;-78
2023/01/20 04:25:49;;;;;;;16.52;8.82;;;1.20;87.30;;;;;;5035686;28;20187;-77
2023/01/20 04:28:15;;;;;;;16.70;9.63;;;1.30;87.10;;;;;;5032022;28;20614;-77
2023/01/20 04:30:40;;;;;;;13.37;8.50;;;1.30;87.00;;;;;;5029677;28;20185;-76
2023/01/20 04:33:06;;;;;;;16.03;8.87;;;1.20;86.90;;;;;;5028167;28;20205;-77
2023/01/20 04:35:31;;;;;;;16.83;9.13;;;1.20;86.90;;;;;;5032924;28;20644;-78
2023/01/20 04:37:57;;;;;;;20.13;9.03;;;1.20;86.90;;;;;;5029123;28;20197;-77
2023/01/20 04:40:22;;;;;;;16.47;9.30;;;1.10;86.80;;;;;;5032567;28;20512;-76
2023/01/20 04:42:48;;;;;;;18.47;9.53;;;1.10;86.90;;;;;;5028659;28;20257;-76
2023/01/20 04:45:15;;;;;;;15.77;8.63;;;1.10;87.00;;;;;;5033909;28;20186;-78
2023/01/20 04:47:41;;;;;;;17.45;9.25;;;1.10;86.90;;;;;;5039105;28;20424;-77
2023/01/20 04:50:07;;;;;;;16.23;9.40;;;1.10;87.00;;;;;;5032046;28;20198;-75
2023/01/20 04:52:33;;;;;;;16.25;9.18;;;1.10;87.00;;;;;;5041287;28;20447;-76
2023/01/20 04:54:58;;;;;;;16.23;9.40;;;1.20;86.90;;;;;;5038403;28;20181;-77
2023/01/20 04:57:24;;;;;;;14.77;8.40;;;1.20;86.90;;;;;;5042551;28;20201;-77
2023/01/20 04:59:50;;;;;;;16.50;9.30;;;1.10;86.60;;;;;;5035382;28;20181;-77
2023/01/20 05:02:15;;;;;;;14.20;8.20;;;1.10;86.00;;;;;;5033168;28;20181;-77
2023/01/20 05:04:41;;;;;;;16.73;8.80;;;1.10;86.00;;;;;;5033860;28;20177;-77
2023/01/20 05:07:06;;;;;;;16.90;8.20;;;1.10;85.90;;;;;;5034521;28;20593;-78
2023/01/20 05:09:32;;;;;;;17.50;9.97;;;1.10;85.90;;;;;;5037315;28;20201;-76
2023/01/20 05:11:58;;;;;;;15.80;8.53;;;1.20;86.00;;;;;;5034422;28;20177;-77
2023/01/20 05:14:23;;;;;;;18.93;8.43;;;1.30;85.70;;;;;;5040097;28;20598;-78
2023/01/20 05:16:49;;;;;;;18.43;8.23;;;1.40;85.20;;;;;;5038309;28;20181;-77
2023/01/20 05:19:14;;;;;;;12.57;7.07;;;1.40;84.60;;;;;;5040287;28;20263;-76
2023/01/20 05:21:41;;;;;;;15.00;8.33;;;1.40;83.70;;;;;;5034181;28;20185;-77
2023/01/20 05:24:07;;;;;;;18.60;7.90;;;1.40;83.60;;;;;;5024054;28;20178;-77
2023/01/20 05:26:33;;;;;;;14.35;7.55;;;1.30;83.70;;;;;;5036865;28;20181;-77
2023/01/20 05:28:59;;;;;;;13.93;8.20;;;1.40;83.70;;;;;;5032926;28;20545;-76
2023/01/20 05:31:24;;;;;;;18.97;8.37;;;1.30;83.40;;;;;;5035067;28;20451;-76
2023/01/20 05:33:50;;;;;;;13.67;8.30;;;1.30;83.60;;;;;;5032289;28;20208;-76
2023/01/20 05:36:16;;;;;;;18.40;8.77;;;1.30;83.60;;;;;;5034025;28;20247;-76
2023/01/20 05:38:41;;;;;;;16.50;8.97;;;1.30;83.70;;;;;;5032853;28;20241;-77
2023/01/20 05:41:08;;;;;;;13.30;8.13;;;1.40;83.80;;;;;;5032383;28;20535;-77
2023/01/20 05:43:34;;;;;;;17.63;9.07;;;1.40;84.30;;;;;;5027050;28;20189;-76
2023/01/20 05:46:00;;;;;;;16.93;9.33;;;1.40;84.10;;;;;;5032519;28;20182;-77
2023/01/20 05:48:26;;;;;;;18.70;8.13;;;1.40;83.40;;;;;;5032688;28;20464;-78
2023/01/20 05:50:51;;;;;;;26.13;10.07;;;1.40;83.60;;;;;;5040215;28;20177;-76
2023/01/20 05:53:17;;;;;;;15.97;9.57;;;1.40;83.70;;;;;;5036423;28;20417;-76
2023/01/20 05:55:43;;;;;;;14.73;8.73;;;1.40;83.70;;;;;;5038636;28;20184;-77
2023/01/20 05:58:09;;;;;;;19.43;8.00;;;1.40;83.80;;;;;;5039893;28;20214;-78
2023/01/20 06:00:35;;;;;;;16.33;9.80;;;1.40;83.80;;;;;;5044870;28;20204;-77
2023/01/20 06:03:01;;;;;;;17.42;8.70;;;1.40;83.80;;;;;;5031765;28;20417;-77
2023/01/20 06:05:26;;;;;;;14.87;8.90;;;1.40;83.40;;;;;;5031713;28;20604;-76
2023/01/20 06:07:56;;;;;;;15.97;9.57;;;1.40;83.10;;;;;;5025182;28;20463;-77
2023/01/20 06:10:26;;;;;;;18.25;9.60;;;1.30;83.00;;;;;;5029735;28;20220;-76
2023/01/20 06:12:53;;;;;;;15.77;8.63;;;1.30;83.40;;;;;;5027746;28;20173;-77
2023/01/20 06:15:19;;;;;;;15.65;9.15;;;1.30;83.60;;;;;;5032485;28;20188;-78
2023/01/20 06:17:45;;;;;;;16.33;9.10;;;1.20;83.70;;;;;;5032638;28;20201;-78
2023/01/20 06:20:11;;;;;;;19.63;9.87;;;1.10;83.80;;;;;;5028554;28;20196;-76
2023/01/20 06:22:37;;;;;;;18.10;8.57;;;1.20;84.10;;;;;;5021870;28;20549;-76
2023/01/20 06:25:03;;;;;;;17.40;9.60;;;1.30;83.80;;;;;;5024851;28;20235;-76
2023/01/20 06:27:28;;;;;;;20.10;8.88;;;1.30;83.40;;;;;;5028699;28;20264;-78
2023/01/20 06:29:54;;;;;;;15.83;9.60;;;1.30;83.30;;;;;;5023839;28;20296;-77
2023/01/20 06:32:19;;;;;;;18.77;8.90;;;1.30;83.30;;;;;;5031863;28;20179;-77
2023/01/20 06:34:45;;;;;;;20.27;10.20;;;1.30;83.10;;;;;;5030927;28;20169;-77
2023/01/20 06:37:11;;;;;;;15.77;8.70;;;1.30;83.10;;;;;;5030084;28;20181;-76
2023/01/20 06:39:37;;;;;;;18.33;9.33;;;1.30;83.40;;;;;;5018864;28;20204;-77
2023/01/20 06:42:03;;;;;;;18.65;9.95;;;1.30;83.30;;;;;;5029573;28;20260;-77
2023/01/20 06:44:28;;;;;;;19.40;10.27;;;1.20;83.40;;;;;;5032641;28;20256;-78
2023/01/20 06:46:56;;;;;;;19.00;10.13;;;1.20;83.70;;;;;;5022944;28;20222;-76
2023/01/20 06:49:21;;;;;;;21.90;10.68;;;1.20;83.80;;;;;;5029761;28;20213;-77
2023/01/20 06:51:48;;;;;;;17.00;9.60;;;1.30;84.30;;;;;;5031985;28;20498;-77
2023/01/20 06:54:13;;;;;;;19.67;9.57;;;1.20;84.40;;;;;;5036130;28;20188;-77
2023/01/20 06:56:39;;;;;;;17.07;9.80;;;1.30;84.70;;;;;;5031131;28;20178;-76
2023/01/20 06:59:05;;;;;;;21.50;9.93;;;1.20;84.40;;;;;;5036540;28;20223;-78
2023/01/20 07:01:31;;;;;;;21.17;10.93;;;1.20;84.40;;;;;;5034367;28;20181;-77
2023/01/20 07:03:57;;;;;;;19.33;9.90;;;1.10;84.70;;;;;;5033910;28;20177;-76
2023/01/20 07:06:30;;;;;;;14.90;8.90;;;1.20;85.00;;;;;;5035448;28;20177;-76
2023/01/20 07:08:57;;;;;;;18.35;10.05;;;1.30;85.20;;;;;;5031001;28;20212;-77
2023/01/20 07:11:22;;;;;;;19.95;10.20;;;1.20;84.70;;;;;;5031788;28;20227;-78
2023/01/20 07:13:48;;;;;;;17.30;10.40;;;1.20;85.20;;;;;;5031196;28;20173;-77
2023/01/20 07:16:14;;;;;;;28.27;11.50;;;1.20;85.30;;;;;;5028846;28;20980;-76
2023/01/20 07:18:40;;;;;;;21.13;10.60;;;1.20;85.50;;;;;;5025555;28;20207;-77
2023/01/20 07:21:06;;;;;;;22.67;10.88;;;1.20;85.60;;;;;;5026818;28;20192;-78
2023/01/20 07:23:32;;;;;;;14.93;9.90;;;1.10;85.70;;;;;;5032812;28;20265;-77
2023/01/20 07:26:04;;;;;;;17.42;9.75;;;1.10;85.90;;;;;;5033893;28;20549;-77
2023/01/20 07:28:31;;;;;;;19.33;10.60;;;1.10;85.90;;;;;;5033611;28;20259;-77
2023/01/20 07:31:02;;;;;;;22.05;9.98;;;1.20;86.00;;;;;;5033846;28;20196;-77
2023/01/20 07:33:28;;;;;;;17.00;10.23;;;1.20;85.60;;;;;;5029459;28;20667;-77
2023/01/20 07:35:53;;;;;;;17.83;10.50;;;1.10;85.50;;;;;;5028386;28;20185;-77
2023/01/20 07:38:19;;;;;;;17.17;9.53;;;1.20;85.70;;;;;;5032392;28;20244;-77
2023/01/20 07:40:45;;;;;;;19.80;10.77;;;1.20;85.70;;;;;;5029952;28;20186;-77
2023/01/20 07:43:11;;;;;;;20.20;10.33;;;1.20;85.30;;;;;;5031422;28;20255;-77
2023/01/20 07:45:36;;;;;;;18.73;10.43;;;1.20;85.30;;;;;;5032985;28;20551;-78
2023/01/20 07:48:02;;;;;;;19.23;9.50;;;1.20;84.70;;;;;;5021239;28;20221;-77
2023/01/20 07:50:28;;;;;;;21.67;10.20;;;1.30;84.40;;;;;;5030520;28;20196;-77
2023/01/20 07:52:54;;;;;;;17.73;10.48;;;1.30;83.80;;;;;;5029666;28;20189;-77
2023/01/20 07:55:20;;;;;;;17.65;10.13;;;1.30;83.80;;;;;;5024808;28;20181;-72
2023/01/20 07:57:46;;;;;;;17.23;9.97;;;1.30;84.30;;;;;;5025700;28;20225;-72
2023/01/20 08:00:12;;;;;;;17.97;10.80;;;1.40;84.60;;;;;;5027495;28;20189;-73
2023/01/20 08:02:38;;;;;;;21.02;11.18;;;1.40;84.40;;;;;;5032615;28;20182;-72
2023/01/20 08:05:04;;;;;;;17.05;9.80;;;1.40;84.30;;;;;;5033649;28;20189;-73
2023/01/20 08:07:30;;;;;;;20.27;10.75;;;1.50;84.00;;;;;;5032639;28;20188;-73
2023/01/20 08:09:56;;;;;;;20.03;10.60;;;1.40;84.00;;;;;;5028573;28;20205;-72
2023/01/20 08:12:22;;;;;;;19.83;11.37;;;1.50;84.40;;;;;;5032422;28;20506;-71
2023/01/20 08:14:48;;;;;;;19.13;9.75;;;1.40;84.10;;;;;;5034092;28;20170;-73
2023/01/20 08:17:14;;;;;;;19.93;10.90;;;1.40;84.10;;;;;;5032451;28;20173;-74
2023/01/20 08:19:39;;;;;;;20.70;10.77;;;1.40;83.80;;;;;;5026707;28;20196;-73
2023/01/20 08:22:05;;;;;;;19.90;10.77;;;1.30;84.10;;;;;;5029331;28;20715;-74
2023/01/20 08:24:31;;;;;;;20.83;11.57;;;1.40;84.10;;;;;;5029037;28;20185;-74
2023/01/20 08:26:56;;;;;;;20.73;11.53;;;1.40;84.30;;;;;;5031846;28;20268;-74
2023/01/20 08:29:22;;;;;;;18.53;10.27;;;1.30;84.30;;;;;;5028766;28;20208;-73
2023/01/20 08:31:47;;;;;;;16.93;9.87;;;1.30;84.70;;;;;;5031889;28;20204;-78
2023/01/20 08:34:13;;;;;;;22.87;12.30;;;1.30;84.70;;;;;;5027819;28;20227;-77
2023/01/20 08:36:40;;;;;;;17.23;10.70;;;1.30;84.60;;;;;;5031732;28;20213;-76
2023/01/20 08:39:08;;;;;;;17.30;10.02;;;1.30;84.70;;;;;;5028121;28;20201;-78
2023/01/20 08:41:36;;;;;;;30.13;11.60;;;1.20;84.70;;;;;;5032094;28;20193;-78
2023/01/20 08:44:04;;;;;;;25.10;11.70;;;1.20;84.70;;;;;;5035192;28;20181;-78
2023/01/20 08:46:30;;;;;;;20.33;10.00;;;1.20;85.00;;;;;;5036204;28;20661;-78
2023/01/20 08:48:56;;;;;;;25.92;11.07;;;1.30;84.90;;;;;;5030601;28;20708;-78
2023/01/20 08:51:28;;;;;;;19.57;10.50;;;1.20;84.60;;;;;;5035177;28;20197;-77
2023/01/20 08:53:53;;;;;;;24.52;12.48;;;1.30;84.60;;;;;;5039715;28;20185;-77
2023/01/20 08:56:19;;;;;;;15.30;8.97;;;1.30;84.30;;;;;;5032418;28;20181;-77
2023/01/20 08:58:45;;;;;;;14.85;8.05;;;1.30;84.10;;;;;;5032218;28;20672;-78
2023/01/20 09:01:14;;;;;;;18.63;10.03;;;1.30;83.60;;;;;;5029658;28;20262;-77
2023/01/20 09:03:40;;;;;;;18.02;9.98;;;1.30;83.40;;;;;;5032936;28;20632;-78
2023/01/20 09:06:07;;;;;;;19.27;9.93;;;1.40;83.30;;;;;;5028117;28;20182;-77
2023/01/20 09:08:33;;;;;;;16.75;10.13;;;1.40;83.00;;;;;;5025586;28;20292;-78
2023/01/20 09:11:11;;;;;;;18.98;8.80;;;1.40;83.30;;;;;;5025830;28;20586;-77
2023/01/20 09:13:37;;;;;;;18.80;9.27;;;1.40;83.10;;;;;;5028983;28;20231;-78
2023/01/20 09:16:03;;;;;;;19.65;9.52;;;1.40;83.00;;;;;;5027260;28;20645;-78
2023/01/20 09:18:31;;;;;;;20.40;10.73;;;1.30;83.10;;;;;;5028442;28;20295;-77
2023/01/20 09:21:06;;;;;;;19.35;9.95;;;1.30;83.30;;;;;;5031161;28;20177;-78
2023/01/20 09:23:36;;;;;;;15.80;9.85;;;1.30;83.30;;;;;;5032355;28;20264;-77
2023/01/20 09:26:04;;;;;;;15.10;9.18;;;1.40;83.10;;;;;;5035811;28;20530;-77
2023/01/20 09:28:30;;;;;;;16.50;9.07;;;1.50;82.80;;;;;;5034849;28;20220;-76
2023/01/20 09:30:57;;;;;;;18.08;8.93;;;1.50;82.50;;;;;;5027342;28;20650;-76
2023/01/20 09:33:23;;;;;;;17.73;10.05;;;1.50;82.80;;;;;;5026080;28;20185;-77
2023/01/20 09:35:59;;;;;;;20.50;9.90;;;1.70;82.50;;;;;;5028556;28;20539;-78
2023/01/20 09:44:05;;;;;;;17.90;9.65;;;1.80;81.70;;;;;;5030116;28;20188;-78
2023/01/20 09:46:36;;;;;;;17.77;9.00;;;1.80;81.80;;;;;;5026012;28;20182;-76
2023/01/20 09:55:39;;;;;;;18.27;10.18;;;2.00;80.60;;;;;;5029813;28;20355;-77
2023/01/20 09:58:26;;;;;;;17.90;9.70;;;2.00;80.60;;;;;;5029858;28;20629;-77
2023/01/20 10:01:16;;;;;;;18.45;10.90;;;2.00;80.90;;;;;;5025064;28;20184;-77
2023/01/20 10:03:55;;;;;;;22.20;10.57;;;2.00;81.10;;;;;;5023990;28;20189;-77
2023/01/20 10:06:50;;;;;;;18.88;9.82;;;2.00;80.90;;;;;;5029534;28;20189;-77
2023/01/20 10:09:48;;;;;;;17.20;10.30;;;2.00;80.90;;;;;;5025967;28;20225;-78
2023/01/20 10:12:24;;;;;;;14.80;9.05;;;2.00;81.20;;;;;;5026824;28;20174;-77
2023/01/20 10:15:03;;;;;;;20.83;10.00;;;1.90;81.10;;;;;;5030252;28;20173;-79
2023/01/20 10:17:51;;;;;;;19.42;9.48;;;1.90;81.10;;;;;;5027359;28;20183;-76
2023/01/20 10:20:33;;;;;;;14.48;8.85;;;1.90;81.40;;;;;;5019452;28;20209;-78
2023/01/20 10:23:08;;;;;;;20.00;10.35;;;1.90;80.90;;;;;;5027850;28;20181;-78
2023/01/20 10:25:48;;;;;;;17.17;9.30;;;2.00;81.20;;;;;;5033892;28;20265;-77
2023/01/20 10:28:27;;;;;;;21.83;10.43;;;1.90;80.60;;;;;;5031448;28;20210;-79
2023/01/20 10:30:56;;;;;;;16.10;9.18;;;1.80;81.10;;;;;;5030815;28;20212;-78
2023/01/20 10:33:39;;;;;;;19.63;10.23;;;1.80;81.50;;;;;;5034632;28;20252;-77
2023/01/20 10:36:20;;;;;;;17.80;9.68;;;1.80;81.50;;;;;;5034574;28;20423;-78
2023/01/20 10:39:27;;;;;;;18.85;10.05;;;1.80;81.70;;;;;;5034045;28;20298;-78
2023/01/20 10:42:01;;;;;;;16.92;10.02;;;2.00;81.50;;;;;;5042185;28;20181;-78
2023/01/20 10:44:27;;;;;;;20.65;10.48;;;1.90;80.90;;;;;;5032182;28;20193;-77
2023/01/20 10:47:01;;;;;;;20.43;10.63;;;2.00;81.20;;;;;;5032870;28;20187;-78
2023/01/20 10:49:55;;;;;;;18.77;10.65;;;2.10;81.20;;;;;;5026166;28;20204;-77
2023/01/20 10:52:50;;;;;;;20.27;10.63;;;2.20;81.10;;;;;;5030455;28;20188;-78
2023/01/20 10:55:27;;;;;;;21.20;9.90;;;2.30;80.90;;;;;;5023353;28;20858;-79
2023/01/20 10:58:08;;;;;;;17.48;9.65;;;2.40;80.00;;;;;;5029433;28;20226;-77
2023/01/20 11:00:34;;;;;;;17.75;8.68;;;2.30;79.60;;;;;;5032400;28;20200;-76
2023/01/20 11:03:04;;;;;;;13.00;7.53;;;2.40;79.20;;;;;;5043987;28;20748;-78
2023/01/20 11:05:39;;;;;;;17.13;8.70;;;2.60;78.90;;;;;;5042939;28;20192;-78
2023/01/20 11:08:21;;;;;;;14.10;7.57;;;2.70;78.30;;;;;;5023876;28;21002;-78
2023/01/20 11:10:51;;;;;;;11.10;6.95;;;2.80;77.60;;;;;;5028076;28;20433;-79
2023/01/20 11:13:17;;;;;;;13.90;6.23;;;3.10;76.80;;;;;;5028917;28;20181;-78
2023/01/20 11:15:46;;;;;;;11.23;7.33;;;3.50;76.40;;;;;;5024639;28;20904;-78
2023/01/20 11:18:15;;;;;;;10.43;6.20;;;3.90;74.30;;;;;;5028763;28;20549;-78
2023/01/20 11:21:07;;;;;;;11.43;6.13;;;3.90;72.60;;;;;;5034218;28;20424;-78
2023/01/20 11:23:38;;;;;;;11.23;6.60;;;3.90;73.20;;;;;;5024711;28;20432;-78
2023/01/20 11:26:17;;;;;;;9.37;5.83;;;4.00;73.50;;;;;;5042567;28;20420;-78
2023/01/20 11:29:02;;;;;;;12.80;6.53;;;4.10;73.60;;;;;;5036538;28;20486;-78
2023/01/20 11:31:44;;;;;;;10.87;6.13;;;4.30;73.30;;;;;;5030378;28;20445;-76
2023/01/20 11:34:33;;;;;;;8.83;5.50;;;4.20;72.00;;;;;;5037372;28;20452;-77
2023/01/20 11:37:05;;;;;;;12.53;6.10;;;4.10;71.80;;;;;;5035298;28;20424;-78
2023/01/20 11:39:42;;;;;;;11.67;6.10;;;4.00;72.10;;;;;;5036166;28;20491;-78
2023/01/20 11:42:22;;;;;;;10.03;6.43;;;4.00;72.40;;;;;;5045543;28;20439;-79
2023/01/20 11:44:49;;;;;;;13.53;6.07;;;3.90;72.00;;;;;;5039820;28;20424;-78
2023/01/20 11:47:30;;;;;;;10.97;5.70;;;4.00;72.30;;;;;;5030367;28;20451;-78
2023/01/20 11:50:08;;;;;;;9.65;5.95;;;3.80;72.10;;;;;;5027371;28;21017;-77
2023/01/20 11:52:41;;;;;;;10.73;5.57;;;3.70;71.80;;;;;;5030403;28;20279;-76
2023/01/20 11:55:23;;;;;;;8.53;4.50;;;3.40;72.00;;;;;;5030909;28;20240;-76
2023/01/20 11:57:56;;;;;;;7.80;4.57;;;3.40;72.30;;;;;;5029759;28;20539;-78
2023/01/20 12:00:27;;;;;;;9.15;3.97;;;3.30;71.30;;;;;;5028183;28;20518;-78
2023/01/20 12:03:03;;;;;;;7.65;5.00;;;3.20;70.70;;;;;;5030999;28;20196;-76
2023/01/20 12:05:57;;;;;;;8.20;4.70;;;3.00;71.00;;;;;;5030170;28;20180;-77
2023/01/20 12:08:27;;;;;;;9.48;5.05;;;3.00;72.30;;;;;;5026929;28;20452;-76
2023/01/20 12:10:58;;;;;;;16.20;6.00;;;3.10;72.90;;;;;;5030687;28;20259;-76
2023/01/20 12:13:29;;;;;;;10.53;5.70;;;3.10;72.30;;;;;;5030233;28;20275;-76
2023/01/20 12:16:00;;;;;;;7.80;4.07;;;3.00;71.70;;;;;;5021191;28;20494;-74
2023/01/20 12:18:36;;;;;;;8.40;4.35;;;3.10;71.80;;;;;;5021563;28;20881;-75
2023/01/20 12:21:08;;;;;;;8.43;4.80;;;3.10;71.40;;;;;;5030459;28;20276;-76
2023/01/20 12:24:00;;;;;;;8.57;4.22;;;3.20;71.30;;;;;;5029142;28;20606;-76
2023/01/20 12:26:27;;;;;;;9.60;4.73;;;3.10;71.70;;;;;;5031596;28;20192;-77
2023/01/20 12:29:15;;;;;;;11.30;4.32;;;3.20;71.10;;;;;;5031924;28;20497;-77
2023/01/20 12:31:42;;;;;;;6.85;3.95;;;3.20;71.30;;;;;;5032930;28;20185;-78
2023/01/20 12:34:12;;;;;;;10.25;4.97;;;3.30;71.70;;;;;;5030049;28;20675;-78
2023/01/20 12:36:58;;;;;;;8.83;5.00;;;3.40;71.80;;;;;;5032161;28;20232;-78
2023/01/20 12:39:30;;;;;;;7.93;4.03;;;3.50;71.70;;;;;;5026294;28;20467;-78
2023/01/20 12:42:16;;;;;;;8.50;4.43;;;3.50;72.00;;;;;;5033055;28;20424;-78
2023/01/20 12:44:48;;;;;;;6.33;4.33;;;3.60;70.80;;;;;;5035159;28;20775;-77
2023/01/20 12:47:32;;;;;;;8.43;3.97;;;3.60;69.90;;;;;;5033343;28;20423;-77
2023/01/20 12:50:14;;;;;;;9.70;4.85;;;3.60;69.90;;;;;;5025533;28;20484;-77
2023/01/20 12:52:54;;;;;;;8.20;4.40;;;3.60;69.80;;;;;;5033093;28;20189;-77
2023/01/20 12:55:39;;;;;;;8.77;5.17;;;3.60;70.20;;;;;;5027530;28;20450;-77
2023/01/20 12:58:14;;;;;;;9.47;4.77;;;3.60;70.40;;;;;;5023615;28;20734;-77
2023/01/20 13:01:12;;;;;;;14.50;4.85;;;3.60;70.50;;;;;;5025836;28;20451;-78
2023/01/20 13:04:10;;;;;;;10.57;5.03;;;3.30;70.10;;;;;;5026026;28;20224;-78
2023/01/20 13:07:05;;;;;;;13.90;5.57;;;3.30;70.80;;;;;;5024292;28;20574;-77
2023/01/20 13:09:39;;;;;;;9.70;6.27;;;3.50;71.00;;;;;;5023904;28;20467;-78
2023/01/20 13:12:37;;;;;;;13.07;6.00;;;3.50;71.40;;;;;;5033094;28;20435;-78
2023/01/20 13:15:27;;;;;;;16.00;9.05;;;3.40;72.60;;;;;;5030555;28;20427;-78